createdAt,value
2019-06-07T00:00:47.876Z,8.53
2019-06-07T00:03:26.634Z,8.63
2019-06-07T00:05:45.287Z,9.33
2019-06-07T00:08:22.586Z,9.40
2019-06-07T00:10:42.880Z,9.60
2019-06-07T00:13:12.877Z,10.17
2019-06-07T00:15:40.390Z,10.23
2019-06-07T00:18:11.126Z,10.57
2019-06-07T00:20:37.692Z,10.57
2019-06-07T00:23:05.412Z,11.90
2019-06-07T00:25:33.103Z,11.50
2019-06-07T00:28:00.856Z,11.40
2019-06-07T00:30:42.378Z,11.30
2019-06-07T00:32:58.869Z,11.63
2019-06-07T00:35:26.659Z,11.50
2019-06-07T00:37:54.396Z,12.07
2019-06-07T00:40:31.524Z,11.70
2019-06-07T00:42:52.410Z,12.30
2019-06-07T00:45:24.650Z,11.90
2019-06-07T00:47:52.553Z,11.97
2019-06-07T00:50:23.964Z,11.70
2019-06-07T00:55:23.428Z,12.37
2019-06-07T00:57:50.325Z,13.53
2019-06-07T01:00:22.363Z,12.03
2019-06-07T01:02:49.738Z,12.07
2019-06-07T01:05:22.461Z,12.30
2019-06-07T01:07:47.215Z,12.23
2019-06-07T01:10:21.164Z,11.77
2019-06-07T01:12:45.212Z,11.23
2019-06-07T01:15:16.211Z,10.70
2019-06-07T01:18:32.429Z,10.60
2019-06-07T01:20:14.246Z,11.13
2019-06-07T01:22:42.141Z,10.20
2019-06-07T01:25:09.994Z,10.60
2019-06-07T01:27:37.865Z,10.43
2019-06-07T01:30:07.779Z,10.90
2019-06-07T01:32:35.435Z,10.70
2019-06-07T01:35:03.573Z,9.93
2019-06-07T01:37:31.248Z,10.73
2019-06-07T01:39:59.012Z,10.67
2019-06-07T01:42:29.449Z,10.37
2019-06-07T01:44:56.491Z,9.60
2019-06-07T01:47:25.602Z,9.93
2019-06-07T01:49:53.817Z,10.13
2019-06-07T01:52:23.542Z,9.33
2019-06-07T01:54:57.883Z,9.80
2019-06-07T01:57:38.343Z,9.37
2019-06-07T01:59:50.586Z,9.73
2019-06-07T02:02:20.051Z,9.67
2019-06-07T02:04:48.175Z,10.03
2019-06-07T02:07:15.948Z,9.90
2019-06-07T02:09:43.671Z,10.00
2019-06-07T02:12:25.587Z,10.13
2019-06-07T02:14:40.883Z,9.00
2019-06-07T02:17:08.698Z,8.83
2019-06-07T02:19:36.348Z,9.77
2019-06-07T02:22:04.064Z,10.83
2019-06-07T02:24:35.307Z,12.90
2019-06-07T02:27:01.565Z,12.07
2019-06-07T02:29:33.060Z,12.90
2019-06-07T02:32:00.173Z,11.63
2019-06-07T02:34:34.816Z,11.43
2019-06-07T02:36:57.709Z,12.10
2019-06-07T02:39:28.198Z,13.13
2019-06-07T02:41:55.133Z,13.90
2019-06-07T02:44:24.070Z,13.30
2019-06-07T02:46:52.917Z,14.30
2019-06-07T02:49:24.174Z,13.47
2019-06-07T02:51:50.887Z,13.70
2019-06-07T02:54:18.611Z,13.23
2019-06-07T02:56:58.159Z,13.10
2019-06-07T02:59:17.967Z,12.67
2019-06-07T03:01:45.729Z,13.30
2019-06-07T03:04:14.652Z,12.60
2019-06-07T03:06:44.041Z,11.97
2019-06-07T03:09:12.076Z,11.70
2019-06-07T03:11:42.333Z,13.07
2019-06-07T03:14:11.775Z,11.80
2019-06-07T03:16:47.357Z,12.23
2019-06-07T03:19:22.792Z,12.10
2019-06-07T03:21:52.521Z,11.80
2019-06-07T03:24:23.209Z,12.70
2019-06-07T03:29:21.328Z,11.60
2019-06-07T03:31:49.077Z,11.20
2019-06-07T03:34:16.814Z,11.43
2019-06-07T03:36:44.557Z,12.53
2019-06-07T03:39:12.270Z,11.77
2019-06-07T03:41:46.332Z,12.77
2019-06-07T03:44:09.594Z,13.47
2019-06-07T03:46:41.184Z,12.73
2019-06-07T03:49:08.195Z,12.50
2019-06-07T03:51:39.679Z,11.83
2019-06-07T03:54:05.607Z,11.33
2019-06-07T03:56:35.348Z,11.77
2019-06-07T03:59:03.377Z,11.03
2019-06-07T04:01:32.349Z,10.37
2019-06-07T04:04:00.671Z,10.47
2019-06-07T04:06:30.881Z,9.17
2019-06-07T04:08:58.050Z,10.60
2019-06-07T04:11:25.757Z,10.30
2019-06-07T04:13:53.687Z,11.70
2019-06-07T04:16:21.524Z,12.23
2019-06-07T04:18:49.218Z,13.73
2019-06-07T04:21:16.953Z,14.63
2019-06-07T04:23:45.674Z,13.90
2019-06-07T04:26:14.922Z,12.67
2019-06-07T04:29:31.083Z,13.37
2019-06-07T04:31:12.429Z,12.67
2019-06-07T04:33:43.530Z,13.03
2019-06-07T04:36:10.745Z,12.60
2019-06-07T04:38:42.600Z,14.37
2019-06-07T04:41:12.786Z,12.87
2019-06-07T04:43:42.839Z,13.00
2019-06-07T04:46:12.108Z,14.20
2019-06-07T04:48:43.735Z,13.90
2019-06-07T04:51:16.792Z,15.00
2019-06-07T04:53:44.613Z,14.67
2019-06-07T04:56:12.320Z,14.80
2019-06-07T04:58:41.347Z,14.00
2019-06-07T05:01:26.225Z,14.90
2019-06-07T05:03:43.885Z,15.17
2019-06-07T05:06:08.856Z,13.93
2019-06-07T05:08:40.578Z,14.97
2019-06-07T05:11:06.186Z,13.00
2019-06-07T05:13:37.855Z,13.83
2019-06-07T05:16:03.617Z,14.27
2019-06-07T05:18:33.702Z,13.33
2019-06-07T05:21:00.905Z,13.30
2019-06-07T05:24:04.378Z,13.77
2019-06-07T05:25:58.346Z,12.97
2019-06-07T05:28:26.045Z,13.57
2019-06-07T05:31:05.268Z,14.27
2019-06-07T05:33:23.879Z,14.97
2019-06-07T05:35:51.636Z,15.37
2019-06-07T05:38:19.369Z,14.07
2019-06-07T05:40:48.659Z,14.57
2019-06-07T05:43:25.241Z,16.20
2019-06-07T05:45:53.232Z,16.83
2019-06-07T05:48:21.383Z,17.47
2019-06-07T05:50:56.474Z,15.60
2019-06-07T05:53:27.195Z,16.53
2019-06-07T05:55:54.875Z,16.63
2019-06-07T05:58:22.609Z,17.97
2019-06-07T06:00:51.051Z,17.37
2019-06-07T06:03:19.132Z,18.23
2019-06-07T06:05:54.569Z,18.63
2019-06-07T06:08:16.755Z,19.53
2019-06-07T06:10:48.008Z,19.20
2019-06-07T06:13:14.407Z,20.90
2019-06-07T06:15:58.532Z,19.97
2019-06-07T06:18:12.112Z,21.30
2019-06-07T06:21:05.336Z,21.50
2019-06-07T06:23:09.667Z,22.13
2019-06-07T06:25:40.829Z,21.87
2019-06-07T06:28:12.286Z,19.67
2019-06-07T06:30:38.137Z,21.03
2019-06-07T06:33:06.205Z,21.47
2019-06-07T06:35:33.925Z,18.97
2019-06-07T06:38:01.790Z,18.10
2019-06-07T06:40:29.484Z,17.43
2019-06-07T06:42:57.238Z,17.50
2019-06-07T06:45:25.261Z,17.70
2019-06-07T06:47:52.979Z,18.00
2019-06-07T06:50:20.927Z,18.73
2019-06-07T06:52:54.056Z,18.47
2019-06-07T06:55:21.165Z,18.03
2019-06-07T06:57:51.191Z,17.63
2019-06-07T07:00:43.030Z,18.07
2019-06-07T07:03:39.574Z,17.50
2019-06-07T07:05:25.386Z,18.47
2019-06-07T07:07:53.320Z,17.63
2019-06-07T07:10:36.373Z,19.30
2019-06-07T07:13:05.544Z,18.20
2019-06-07T07:15:35.651Z,19.97
2019-06-07T07:18:08.869Z,17.30
2019-06-07T07:20:35.934Z,18.77
2019-06-07T07:23:04.086Z,17.97
2019-06-07T07:25:32.103Z,17.90
2019-06-07T07:27:59.911Z,18.67
2019-06-07T07:30:59.301Z,19.00
2019-06-07T07:34:18.660Z,19.47
2019-06-07T07:36:22.698Z,19.43
2019-06-07T07:38:26.330Z,18.67
2019-06-07T07:41:06.679Z,18.87
2019-06-07T07:43:24.280Z,18.60
2019-06-07T07:45:59.376Z,19.13
2019-06-07T07:48:22.325Z,18.97
2019-06-07T07:50:54.428Z,17.90
2019-06-07T07:53:19.835Z,16.43
2019-06-07T07:55:50.461Z,18.13
2019-06-07T07:58:17.338Z,17.77
2019-06-07T08:01:04.747Z,17.97
2019-06-07T08:03:15.066Z,19.50
2019-06-07T08:05:44.938Z,18.80
2019-06-07T08:08:12.544Z,17.87
2019-06-07T08:10:40.356Z,18.43
2019-06-07T08:13:24.806Z,16.43
2019-06-07T08:15:38.832Z,17.17
2019-06-07T08:18:06.749Z,16.53
2019-06-07T08:20:34.592Z,16.03
2019-06-07T08:23:02.260Z,16.20
2019-06-07T08:25:30.107Z,16.93
2019-06-07T08:27:59.138Z,16.50
2019-06-07T08:33:12.064Z,18.40
2019-06-07T08:38:22.147Z,17.20
2019-06-07T08:40:26.309Z,16.30
2019-06-07T08:43:10.638Z,16.27
2019-06-07T08:45:23.733Z,17.50
2019-06-07T08:47:57.166Z,15.43
2019-06-07T08:50:23.130Z,16.07
2019-06-07T08:52:54.783Z,17.43
2019-06-07T08:55:20.771Z,18.10
2019-06-07T08:57:48.452Z,16.53
2019-06-07T09:00:42.992Z,17.60
2019-06-07T09:02:48.185Z,18.23
2019-06-07T09:05:17.391Z,17.13
2019-06-07T09:07:45.057Z,16.50
2019-06-07T09:10:15.234Z,16.13
2019-06-07T09:12:43.362Z,16.23
2019-06-07T09:15:22.659Z,15.57
2019-06-07T09:18:29.579Z,16.70
2019-06-07T09:20:35.086Z,16.13
2019-06-07T09:22:43.948Z,15.93
2019-06-07T09:25:21.155Z,13.83
2019-06-07T09:27:42.865Z,14.43
2019-06-07T09:30:18.360Z,14.53
2019-06-07T09:32:41.165Z,15.83
2019-06-07T09:35:16.844Z,14.37
2019-06-07T09:38:04.266Z,15.67
2019-06-07T09:40:24.840Z,14.20
2019-06-07T09:42:40.246Z,14.10
2019-06-07T09:45:11.711Z,12.97
2019-06-07T09:47:37.832Z,13.27
2019-06-07T09:50:11.837Z,14.17
2019-06-07T09:52:57.335Z,13.97
2019-06-07T09:55:19.637Z,13.57
2019-06-07T09:57:35.963Z,13.70
2019-06-07T10:00:38.216Z,16.07
2019-06-07T10:02:37.642Z,14.07
2019-06-07T10:05:12.189Z,13.63
2019-06-07T10:07:35.374Z,14.30
2019-06-07T10:10:22.343Z,13.17
2019-06-07T10:12:33.310Z,13.30
2019-06-07T10:15:01.070Z,13.30
2019-06-07T10:17:28.920Z,13.00
2019-06-07T10:19:56.723Z,13.10
2019-06-07T10:22:24.572Z,14.80
2019-06-07T10:24:52.429Z,12.87
2019-06-07T10:27:20.989Z,12.63
2019-06-07T10:29:49.673Z,12.80
2019-06-07T10:32:17.593Z,12.63
2019-06-07T10:34:45.859Z,13.47
2019-06-07T10:37:15.610Z,12.97
2019-06-07T10:39:48.604Z,11.17
2019-06-07T10:42:13.106Z,12.07
2019-06-07T10:44:40.816Z,10.70
2019-06-07T10:47:10.005Z,11.23
2019-06-07T10:49:37.886Z,10.47
2019-06-07T10:52:07.884Z,10.47
2019-06-07T10:54:35.448Z,10.77
2019-06-07T10:57:04.751Z,8.87
2019-06-07T10:59:32.987Z,8.67
2019-06-07T11:02:01.505Z,9.67
2019-06-07T11:04:29.167Z,7.63
2019-06-07T11:06:57.032Z,9.03
2019-06-07T11:09:24.840Z,8.77
2019-06-07T11:11:52.587Z,9.17
2019-06-07T11:14:20.298Z,8.93
2019-06-07T11:16:48.056Z,9.67
2019-06-07T11:19:17.804Z,7.97
2019-06-07T11:21:45.478Z,7.97
2019-06-07T11:24:14.428Z,7.90
2019-06-07T11:26:42.345Z,9.03
2019-06-07T11:29:10.991Z,8.10
2019-06-07T11:31:39.247Z,8.70
2019-06-07T11:34:08.228Z,8.93
2019-06-07T11:36:36.120Z,9.00
2019-06-07T11:39:06.505Z,9.77
2019-06-07T11:41:34.259Z,9.63
2019-06-07T11:44:02.013Z,8.90
2019-06-07T11:46:29.825Z,8.50
2019-06-07T11:48:57.505Z,8.90
2019-06-07T11:51:25.395Z,9.07
2019-06-07T11:53:53.281Z,8.53
2019-06-07T11:56:20.961Z,9.27
2019-06-07T11:58:48.673Z,8.80
2019-06-07T12:01:18.503Z,10.33
2019-06-07T12:03:46.086Z,9.20
2019-06-07T12:06:14.639Z,8.77
2019-06-07T12:08:43.833Z,8.77
2019-06-07T12:11:12.195Z,8.47
2019-06-07T12:13:40.104Z,8.67
2019-06-07T12:16:09.046Z,7.93
2019-06-07T12:18:36.947Z,8.63
2019-06-07T12:21:04.742Z,8.27
2019-06-07T12:23:32.598Z,7.73
2019-06-07T12:26:00.301Z,7.97
2019-06-07T12:28:28.791Z,9.07
2019-06-07T12:30:57.110Z,8.67
2019-06-07T12:33:25.013Z,7.83
2019-06-07T12:35:52.724Z,7.97
2019-06-07T12:38:21.458Z,7.90
2019-06-07T12:40:57.729Z,8.80
2019-06-07T12:43:23.441Z,8.17
2019-06-07T12:45:51.596Z,8.67
2019-06-07T12:48:22.923Z,8.40
2019-06-07T12:50:49.275Z,9.10
2019-06-07T12:53:24.224Z,8.70
2019-06-07T12:55:48.643Z,9.10
2019-06-07T12:58:16.485Z,9.17
2019-06-07T13:00:44.270Z,8.83
2019-06-07T13:03:12.016Z,9.20
2019-06-07T13:05:39.779Z,9.70
2019-06-07T13:08:07.706Z,9.73
2019-06-07T13:10:35.718Z,8.97
2019-06-07T13:13:03.770Z,8.67
2019-06-07T13:15:31.447Z,8.60
2019-06-07T13:17:59.175Z,8.97
2019-06-07T13:20:28.784Z,8.17
2019-06-07T13:22:56.645Z,8.50
2019-06-07T13:25:35.007Z,8.27
2019-06-07T13:27:54.352Z,7.50
2019-06-07T13:30:23.512Z,8.10
2019-06-07T13:32:52.226Z,8.07
2019-06-07T13:35:22.111Z,7.73
2019-06-07T13:37:50.885Z,9.23
2019-06-07T13:40:19.813Z,9.97
2019-06-07T13:42:51.200Z,9.73
2019-06-07T13:45:20.042Z,9.67
2019-06-07T13:47:48.650Z,8.77
2019-06-07T13:50:17.594Z,8.30
2019-06-07T13:52:46.785Z,8.63
2019-06-07T13:55:15.517Z,9.10
2019-06-07T13:57:43.332Z,8.57
2019-06-07T14:00:11.614Z,9.03
2019-06-07T14:02:39.897Z,8.93
2019-06-07T14:05:08.542Z,8.90
2019-06-07T14:07:36.510Z,8.33
2019-06-07T14:10:05.320Z,8.97
2019-06-07T14:12:33.409Z,8.53
2019-06-07T14:15:01.173Z,8.90
2019-06-07T14:17:30.953Z,8.27
2019-06-07T14:19:59.764Z,8.53
2019-06-07T14:22:28.917Z,8.03
2019-06-07T14:24:56.951Z,7.27
2019-06-07T14:27:25.484Z,7.03
2019-06-07T14:29:53.248Z,6.90
2019-06-07T14:32:22.681Z,7.90
2019-06-07T14:34:52.605Z,6.67
2019-06-07T14:37:20.253Z,7.33
2019-06-07T14:39:47.988Z,7.63
2019-06-07T14:42:15.689Z,7.43
2019-06-07T14:44:46.128Z,7.43
2019-06-07T14:47:13.877Z,6.90
2019-06-07T14:49:41.662Z,6.97
2019-06-07T14:52:09.496Z,7.20
2019-06-07T14:54:39.246Z,6.43
2019-06-07T14:57:08.735Z,7.33
2019-06-07T14:59:36.631Z,6.60
2019-06-07T15:02:04.320Z,7.00
2019-06-07T15:04:32.867Z,6.93
2019-06-07T15:07:01.465Z,7.33
2019-06-07T15:09:31.038Z,7.97
2019-06-07T15:11:58.866Z,7.83
2019-06-07T15:14:27.327Z,6.90
2019-06-07T15:16:57.147Z,7.50
2019-06-07T15:19:26.495Z,7.63
2019-06-07T15:21:54.595Z,6.73
2019-06-07T15:24:22.475Z,7.30
2019-06-07T15:26:50.297Z,7.40
2019-06-07T15:29:18.276Z,7.27
2019-06-07T15:31:46.071Z,7.00
2019-06-07T15:34:13.882Z,7.30
2019-06-07T15:36:41.579Z,7.30
2019-06-07T15:39:09.376Z,7.70
2019-06-07T15:41:37.491Z,7.27
2019-06-07T15:44:05.521Z,7.30
2019-06-07T15:46:33.706Z,7.40
2019-06-07T15:49:01.763Z,7.47
2019-06-07T15:51:30.647Z,7.07
2019-06-07T15:53:58.784Z,7.27
2019-06-07T15:56:26.661Z,7.80
2019-06-07T15:58:54.554Z,7.87
2019-06-07T16:01:22.400Z,7.23
2019-06-07T16:03:50.249Z,23.67
2019-06-07T16:06:19.677Z,15.03
2019-06-07T16:09:15.870Z,12.53
2019-06-07T16:11:44.334Z,8.63
2019-06-07T16:14:12.218Z,18.73
2019-06-07T16:16:41.365Z,8.07
2019-06-07T16:19:09.336Z,8.77
2019-06-07T16:21:37.395Z,7.33
2019-06-07T16:24:05.589Z,7.40
2019-06-07T16:26:34.058Z,7.33
2019-06-07T16:29:02.373Z,9.43
2019-06-07T16:31:30.207Z,7.50
2019-06-07T16:33:57.943Z,8.50
2019-06-07T16:36:25.746Z,9.00
2019-06-07T16:38:53.434Z,7.73
2019-06-07T16:41:21.420Z,8.30
2019-06-07T16:43:49.126Z,7.93
2019-06-07T16:46:16.976Z,7.60
2019-06-07T16:48:45.103Z,6.53
2019-06-07T16:51:12.968Z,6.83
2019-06-07T16:53:40.779Z,6.60
2019-06-07T16:56:08.584Z,6.93
2019-06-07T16:58:37.738Z,6.20
2019-06-07T17:01:05.697Z,7.00
2019-06-07T17:03:33.524Z,6.87
2019-06-07T17:06:01.285Z,7.00
2019-06-07T17:08:29.023Z,6.57
2019-06-07T17:10:56.883Z,6.53
2019-06-07T17:13:33.285Z,6.00
2019-06-07T17:15:54.475Z,6.33
2019-06-07T17:18:22.292Z,6.67
2019-06-07T17:20:57.413Z,6.27
2019-06-07T17:23:25.239Z,6.40
2019-06-07T17:25:53.197Z,7.33
2019-06-07T17:28:20.964Z,6.70
2019-06-07T17:30:50.411Z,6.83
2019-06-07T17:33:18.689Z,6.97
2019-06-07T17:35:54.267Z,7.00
2019-06-07T17:38:29.524Z,6.70
2019-06-07T17:41:08.772Z,6.77
2019-06-07T17:43:50.529Z,6.77
2019-06-07T17:46:06.228Z,7.37
2019-06-07T17:48:33.921Z,7.07
2019-06-07T17:51:01.819Z,6.73
2019-06-07T17:53:30.597Z,7.10
2019-06-07T17:55:58.627Z,7.07
2019-06-07T17:58:27.486Z,6.90
2019-06-07T18:00:55.407Z,7.43
2019-06-07T18:03:23.229Z,6.90
2019-06-07T18:05:54.093Z,7.83
2019-06-07T18:08:23.985Z,7.50
2019-06-07T18:10:52.139Z,7.70
2019-06-07T18:13:20.562Z,7.03
2019-06-07T18:15:52.943Z,7.40
2019-06-07T18:18:18.253Z,6.80
2019-06-07T18:20:47.181Z,7.20
2019-06-07T18:23:15.409Z,7.13
2019-06-07T18:25:43.264Z,7.20
2019-06-07T18:28:11.227Z,6.87
2019-06-07T18:30:38.942Z,7.60
2019-06-07T18:33:06.908Z,7.40
2019-06-07T18:35:35.295Z,9.50
2019-06-07T18:38:03.342Z,8.03
2019-06-07T18:40:31.134Z,7.97
2019-06-07T18:42:59.571Z,8.13
2019-06-07T18:45:27.856Z,8.20
2019-06-07T18:47:55.807Z,8.27
2019-06-07T18:50:23.649Z,8.40
2019-06-07T18:52:52.608Z,7.93
2019-06-07T18:55:20.652Z,8.43
2019-06-07T18:57:48.404Z,8.47
2019-06-07T19:00:16.657Z,7.73
2019-06-07T19:02:44.395Z,9.40
2019-06-07T19:05:12.723Z,9.40
2019-06-07T19:07:40.979Z,9.47
2019-06-07T19:10:10.513Z,9.97
2019-06-07T19:12:38.633Z,9.83
2019-06-07T19:15:07.304Z,9.57
2019-06-07T19:17:35.144Z,9.53
2019-06-07T19:20:03.353Z,9.37
2019-06-07T19:22:31.118Z,10.17
2019-06-07T19:25:00.467Z,10.50
2019-06-07T19:27:28.559Z,10.03
2019-06-07T19:29:56.759Z,9.73
2019-06-07T19:32:24.899Z,9.60
2019-06-07T19:34:53.220Z,11.30
2019-06-07T19:37:21.172Z,11.27
2019-06-07T19:39:48.869Z,10.83
2019-06-07T19:42:16.588Z,11.13
2019-06-07T19:44:54.631Z,11.17
2019-06-07T19:47:13.915Z,12.63
2019-06-07T19:49:41.612Z,14.20
2019-06-07T19:52:09.807Z,13.70
2019-06-07T19:54:37.533Z,13.40
2019-06-07T19:57:05.687Z,12.57
2019-06-07T19:59:33.423Z,10.90
2019-06-07T20:02:02.093Z,11.50
2019-06-07T20:04:30.089Z,11.60
2019-06-07T20:06:58.237Z,12.37
2019-06-07T20:09:26.041Z,12.90
2019-06-07T20:11:54.507Z,13.40
2019-06-07T20:14:23.117Z,12.73
2019-06-07T20:16:51.230Z,13.40
2019-06-07T20:19:19.060Z,13.23
2019-06-07T20:21:46.746Z,11.97
2019-06-07T20:24:26.302Z,11.80
2019-06-07T20:26:47.116Z,12.87
2019-06-07T20:29:25.962Z,12.60
2019-06-07T20:31:44.727Z,13.27
2019-06-07T20:34:13.214Z,13.00
2019-06-07T20:36:40.985Z,14.40
2019-06-07T20:39:08.827Z,14.97
2019-06-07T20:41:37.268Z,15.17
2019-06-07T20:44:05.852Z,21.53
2019-06-07T20:46:33.730Z,25.40
2019-06-07T20:49:02.328Z,32.27
2019-06-07T20:51:30.125Z,33.03
2019-06-07T20:53:58.479Z,28.47
2019-06-07T20:56:26.268Z,22.63
2019-06-07T20:58:54.111Z,20.93
2019-06-07T21:01:22.227Z,16.43
2019-06-07T21:03:50.017Z,14.90
2019-06-07T21:06:17.925Z,14.50
2019-06-07T21:08:45.690Z,13.63
2019-06-07T21:11:13.599Z,14.93
2019-06-07T21:13:41.362Z,15.03
2019-06-07T21:16:10.334Z,15.73
2019-06-07T21:18:38.347Z,16.70
2019-06-07T21:21:06.459Z,15.33
2019-06-07T21:23:34.329Z,16.60
2019-06-07T21:26:03.052Z,16.63
2019-06-07T21:28:30.954Z,17.23
2019-06-07T21:30:58.943Z,17.93
2019-06-07T21:33:26.649Z,16.73
2019-06-07T21:35:54.495Z,16.17
2019-06-07T21:38:22.211Z,16.17
2019-06-07T21:40:50.009Z,16.90
2019-06-07T21:43:17.800Z,15.97
2019-06-07T21:45:45.652Z,15.53
2019-06-07T21:48:14.415Z,14.90
2019-06-07T21:50:42.502Z,16.00
2019-06-07T21:53:10.731Z,15.93
2019-06-07T21:55:38.615Z,16.07
2019-06-07T21:58:07.042Z,15.67
2019-06-07T22:01:14.220Z,16.43
2019-06-07T22:03:42.533Z,14.73
2019-06-07T22:06:11.768Z,15.97
2019-06-07T22:08:40.461Z,14.50
2019-06-07T22:11:08.352Z,15.60
2019-06-07T22:13:36.321Z,14.50
2019-06-07T22:16:04.193Z,14.90
2019-06-07T22:18:31.922Z,15.30
2019-06-07T22:20:59.678Z,15.10
2019-06-07T22:23:27.472Z,15.50
2019-06-07T22:25:55.281Z,14.43
2019-06-07T22:28:23.291Z,15.03
2019-06-07T22:30:51.057Z,14.77
2019-06-07T22:33:19.051Z,15.20
2019-06-07T22:35:46.947Z,15.13
2019-06-07T22:38:14.639Z,15.10
2019-06-07T22:40:42.436Z,14.30
2019-06-07T22:43:11.835Z,14.80
2019-06-07T22:45:39.841Z,14.97
2019-06-07T22:48:08.690Z,13.73
2019-06-07T22:50:36.708Z,14.90
2019-06-07T22:53:04.524Z,15.20
2019-06-07T22:55:32.380Z,15.53
2019-06-07T22:58:00.586Z,16.33
2019-06-07T23:00:29.852Z,15.07
2019-06-07T23:02:57.681Z,15.30
2019-06-07T23:05:26.283Z,16.07
2019-06-07T23:07:54.162Z,16.00
2019-06-07T23:10:22.139Z,16.27
2019-06-07T23:12:49.866Z,16.63
2019-06-07T23:15:19.354Z,16.47
2019-06-07T23:17:49.025Z,14.50
2019-06-07T23:20:18.066Z,15.27
2019-06-07T23:22:45.998Z,14.40
2019-06-07T23:25:18.884Z,14.80
2019-06-07T23:27:44.673Z,15.10
2019-06-07T23:30:14.649Z,15.17
2019-06-07T23:32:42.442Z,15.20
2019-06-07T23:35:11.009Z,16.03
2019-06-07T23:37:38.801Z,17.23
2019-06-07T23:40:07.136Z,15.07
2019-06-07T23:42:34.984Z,14.53
2019-06-07T23:45:05.567Z,16.40
2019-06-07T23:47:33.344Z,17.53
2019-06-07T23:50:01.053Z,16.50
2019-06-07T23:52:29.094Z,17.23
2019-06-07T23:54:56.813Z,16.87
2019-06-07T23:57:24.575Z,16.70
2019-06-07T23:59:52.287Z,16.43
